<?xml version="1.0" encoding="UTF-8" standalone="no" ?>
<gpx xmlns="http://www.topografix.com/GPX/1/1" xmlns:xsi="http://www.w3.org/2001/XMLSchema-instance" xsi:schemaLocation="http://www.topografix.com/GPX/1/1 http://www.topografix.com/GPX/1/1/gpx.xsd" version="1.1" creator="VisuGPX - https://www.visugpx.com">
  <metadata>
    <name>Suède</name>
  </metadata>
  <trk>
    <name><![CDATA[Tour d'Europe: étape 097]]></name>
    <trkseg>
      <trkpt lat="63.25733" lon="18.81154">
        <ele>58.754177</ele>
        <time>2020-10-03T07:47:03.850Z</time>
      </trkpt>
      <trkpt lat="63.25763" lon="18.80955">
        <ele>43.501254</ele>
        <time>2020-10-03T07:47:54.846Z</time>
      </trkpt>
      <trkpt lat="63.25986" lon="18.80846">
        <ele>37.551397</ele>
        <time>2020-10-03T07:48:49.851Z</time>
      </trkpt>
      <trkpt lat="63.26188" lon="18.80688">
        <ele>36.707127</ele>
        <time>2020-10-03T07:49:46.848Z</time>
      </trkpt>
      <trkpt lat="63.26433" lon="18.80672">
        <ele>32.143156</ele>
        <time>2020-10-03T07:50:28.862Z</time>
      </trkpt>
      <trkpt lat="63.26628" lon="18.80712">
        <ele>31.620561</ele>
        <time>2020-10-03T07:51:11.854Z</time>
      </trkpt>
      <trkpt lat="63.26829" lon="18.80666">
        <ele>31.031223</ele>
        <time>2020-10-03T07:52:01.842Z</time>
      </trkpt>
      <trkpt lat="63.2695" lon="18.80958">
        <ele>27.214693</ele>
        <time>2020-10-03T07:52:44.893Z</time>
      </trkpt>
      <trkpt lat="63.2715" lon="18.8081">
        <ele>34.025919</ele>
        <time>2020-10-03T07:53:50.847Z</time>
      </trkpt>
      <trkpt lat="63.2723" lon="18.80514">
        <ele>48.079363</ele>
        <time>2020-10-03T07:55:39.872Z</time>
      </trkpt>
      <trkpt lat="63.27155" lon="18.80054">
        <ele>47.724764</ele>
        <time>2020-10-03T07:56:23.848Z</time>
      </trkpt>
      <trkpt lat="63.27069" lon="18.7955">
        <ele>46.054709</ele>
        <time>2020-10-03T07:57:15.853Z</time>
      </trkpt>
      <trkpt lat="63.26931" lon="18.79087">
        <ele>43.267911</ele>
        <time>2020-10-03T07:57:58.857Z</time>
      </trkpt>
      <trkpt lat="63.26709" lon="18.78815">
        <ele>38.377286</ele>
        <time>2020-10-03T07:58:38.845Z</time>
      </trkpt>
      <trkpt lat="63.26519" lon="18.78601">
        <ele>34.723173</ele>
        <time>2020-10-03T07:59:18.878Z</time>
      </trkpt>
      <trkpt lat="63.26275" lon="18.78388">
        <ele>33.290055</ele>
        <time>2020-10-03T08:00:00.864Z</time>
      </trkpt>
      <trkpt lat="63.26061" lon="18.78226">
        <ele>35.577507</ele>
        <time>2020-10-03T08:00:56.858Z</time>
      </trkpt>
      <trkpt lat="63.25899" lon="18.77961">
        <ele>40.315717</ele>
        <time>2020-10-03T08:01:51.850Z</time>
      </trkpt>
      <trkpt lat="63.25841" lon="18.77508">
        <ele>43.386091</ele>
        <time>2020-10-03T08:02:43.848Z</time>
      </trkpt>
      <trkpt lat="63.25879" lon="18.77104">
        <ele>45.935477</ele>
        <time>2020-10-03T08:03:47.872Z</time>
      </trkpt>
      <trkpt lat="63.26158" lon="18.77119">
        <ele>34.153538</ele>
        <time>2020-10-03T08:04:27.866Z</time>
      </trkpt>
      <trkpt lat="63.26391" lon="18.77167">
        <ele>31.142799</ele>
        <time>2020-10-03T08:05:09.872Z</time>
      </trkpt>
      <trkpt lat="63.26588" lon="18.77177">
        <ele>30.251823</ele>
        <time>2020-10-03T08:05:49.866Z</time>
      </trkpt>
      <trkpt lat="63.26759" lon="18.76989">
        <ele>28.336668</ele>
        <time>2020-10-03T08:06:30.888Z</time>
      </trkpt>
      <trkpt lat="63.26898" lon="18.76625">
        <ele>29.238929</ele>
        <time>2020-10-03T08:07:17.856Z</time>
      </trkpt>
      <trkpt lat="63.27026" lon="18.7622">
        <ele>32.284797</ele>
        <time>2020-10-03T08:08:07.844Z</time>
      </trkpt>
      <trkpt lat="63.27171" lon="18.75786">
        <ele>39.887173</ele>
        <time>2020-10-03T08:09:05.859Z</time>
      </trkpt>
      <trkpt lat="63.27304" lon="18.75439">
        <ele>52.255272</ele>
        <time>2020-10-03T08:10:28.857Z</time>
      </trkpt>
      <trkpt lat="63.27467" lon="18.75177">
        <ele>54.604974</ele>
        <time>2020-10-03T08:11:53.846Z</time>
      </trkpt>
      <trkpt lat="63.27664" lon="18.74969">
        <ele>51.954459</ele>
        <time>2020-10-03T08:12:55.861Z</time>
      </trkpt>
      <trkpt lat="63.27878" lon="18.74796">
        <ele>49.442952</ele>
        <time>2020-10-03T08:13:44.871Z</time>
      </trkpt>
      <trkpt lat="63.28041" lon="18.74506">
        <ele>50.226566</ele>
        <time>2020-10-03T08:14:35.858Z</time>
      </trkpt>
      <trkpt lat="63.282" lon="18.7416">
        <ele>52.920563</ele>
        <time>2020-10-03T08:15:54.886Z</time>
      </trkpt>
      <trkpt lat="63.28335" lon="18.73716">
        <ele>47.244899</ele>
        <time>2020-10-03T08:16:40.884Z</time>
      </trkpt>
      <trkpt lat="63.28522" lon="18.73325">
        <ele>45.929329</ele>
        <time>2020-10-03T08:17:20.885Z</time>
      </trkpt>
      <trkpt lat="63.28699" lon="18.73089">
        <ele>47.101171</ele>
        <time>2020-10-03T08:18:11.859Z</time>
      </trkpt>
      <trkpt lat="63.28761" lon="18.72609">
        <ele>32.952288</ele>
        <time>2020-10-03T08:18:54.864Z</time>
      </trkpt>
      <trkpt lat="63.28724" lon="18.72123">
        <ele>34.454813</ele>
        <time>2020-10-03T08:20:11.877Z</time>
      </trkpt>
      <trkpt lat="63.28721" lon="18.71617">
        <ele>40.474737</ele>
        <time>2020-10-03T08:21:18.888Z</time>
      </trkpt>
      <trkpt lat="63.28829" lon="18.71215">
        <ele>44.24036</ele>
        <time>2020-10-03T08:22:12.904Z</time>
      </trkpt>
      <trkpt lat="63.28876" lon="18.70927">
        <ele>42.186079</ele>
        <time>2020-10-03T08:24:00.886Z</time>
      </trkpt>
      <trkpt lat="63.2871" lon="18.7081">
        <ele>36.776022</ele>
        <time>2020-10-03T08:25:01.899Z</time>
      </trkpt>
      <trkpt lat="63.28496" lon="18.70923">
        <ele>31.474795</ele>
        <time>2020-10-03T08:26:01.857Z</time>
      </trkpt>
      <trkpt lat="63.28308" lon="18.70882">
        <ele>38.361377</ele>
        <time>2020-10-03T08:27:18.852Z</time>
      </trkpt>
      <trkpt lat="63.28104" lon="18.7099">
        <ele>53.429018</ele>
        <time>2020-10-03T08:28:58.909Z</time>
      </trkpt>
      <trkpt lat="63.27903" lon="18.71044">
        <ele>57.329584</ele>
        <time>2020-10-03T08:30:22.866Z</time>
      </trkpt>
      <trkpt lat="63.27709" lon="18.70885">
        <ele>54.876563</ele>
        <time>2020-10-03T08:31:28.872Z</time>
      </trkpt>
      <trkpt lat="63.2753" lon="18.70617">
        <ele>61.86354</ele>
        <time>2020-10-03T08:32:37.871Z</time>
      </trkpt>
      <trkpt lat="63.27502" lon="18.70161">
        <ele>67.041036</ele>
        <time>2020-10-03T08:33:55.893Z</time>
      </trkpt>
      <trkpt lat="63.27475" lon="18.69667">
        <ele>64.484529</ele>
        <time>2020-10-03T08:34:41.863Z</time>
      </trkpt>
      <trkpt lat="63.27261" lon="18.69187">
        <ele>41.214357</ele>
        <time>2020-10-03T08:35:23.865Z</time>
      </trkpt>
      <trkpt lat="63.27044" lon="18.6907">
        <ele>37.555331</ele>
        <time>2020-10-03T08:36:07.862Z</time>
      </trkpt>
      <trkpt lat="63.26822" lon="18.69052">
        <ele>44.367505</ele>
        <time>2020-10-03T08:37:02.866Z</time>
      </trkpt>
      <trkpt lat="63.26626" lon="18.6894">
        <ele>54.629544</ele>
        <time>2020-10-03T08:38:25.876Z</time>
      </trkpt>
      <trkpt lat="63.26447" lon="18.68712">
        <ele>63.35869</ele>
        <time>2020-10-03T08:39:52.881Z</time>
      </trkpt>
      <trkpt lat="63.26254" lon="18.68627">
        <ele>66.481525</ele>
        <time>2020-10-03T08:41:11.859Z</time>
      </trkpt>
      <trkpt lat="63.26035" lon="18.68595">
        <ele>60.663484</ele>
        <time>2020-10-03T08:41:56.896Z</time>
      </trkpt>
      <trkpt lat="63.25813" lon="18.68558">
        <ele>60.4218</ele>
        <time>2020-10-03T08:42:38.855Z</time>
      </trkpt>
      <trkpt lat="63.25605" lon="18.68531">
        <ele>68.86965</ele>
        <time>2020-10-03T08:44:00.879Z</time>
      </trkpt>
      <trkpt lat="63.25413" lon="18.68263">
        <ele>59.154232</ele>
        <time>2020-10-03T08:44:31.889Z</time>
      </trkpt>
      <trkpt lat="63.2533" lon="18.67765">
        <ele>50.8505</ele>
        <time>2020-10-03T08:44:58.872Z</time>
      </trkpt>
      <trkpt lat="63.25234" lon="18.67369">
        <ele>64.647821</ele>
        <time>2020-10-03T08:46:17.879Z</time>
      </trkpt>
      <trkpt lat="63.25121" lon="18.66996">
        <ele>78.810589</ele>
        <time>2020-10-03T08:48:21.875Z</time>
      </trkpt>
      <trkpt lat="63.25119" lon="18.66567">
        <ele>83.082038</ele>
        <time>2020-10-03T08:50:15.889Z</time>
      </trkpt>
      <trkpt lat="63.24973" lon="18.66239">
        <ele>76.353544</ele>
        <time>2020-10-03T08:50:51.858Z</time>
      </trkpt>
      <trkpt lat="63.24748" lon="18.6611">
        <ele>65.559574</ele>
        <time>2020-10-03T08:51:11.882Z</time>
      </trkpt>
      <trkpt lat="63.24526" lon="18.66284">
        <ele>54.02524</ele>
        <time>2020-10-03T08:51:37.865Z</time>
      </trkpt>
      <trkpt lat="63.24355" lon="18.65941">
        <ele>43.414775</ele>
        <time>2020-10-03T08:52:12.877Z</time>
      </trkpt>
      <trkpt lat="63.24177" lon="18.65731">
        <ele>34.1029</ele>
        <time>2020-10-03T08:52:34.914Z</time>
      </trkpt>
      <trkpt lat="63.23898" lon="18.65633">
        <ele>26.85353</ele>
        <time>2020-10-03T08:53:14.917Z</time>
      </trkpt>
      <trkpt lat="63.23706" lon="18.65764">
        <ele>28.661468</ele>
        <time>2020-10-03T08:53:54.877Z</time>
      </trkpt>
      <trkpt lat="63.23548" lon="18.66034">
        <ele>32.650734</ele>
        <time>2020-10-03T08:54:37.867Z</time>
      </trkpt>
      <trkpt lat="63.23405" lon="18.6576">
        <ele>31.715537</ele>
        <time>2020-10-03T08:55:18.871Z</time>
      </trkpt>
      <trkpt lat="63.23285" lon="18.65385">
        <ele>33.225022</ele>
        <time>2020-10-03T08:56:01.879Z</time>
      </trkpt>
      <trkpt lat="63.23256" lon="18.64902">
        <ele>37.35036</ele>
        <time>2020-10-03T08:56:59.867Z</time>
      </trkpt>
      <trkpt lat="63.23359" lon="18.64459">
        <ele>36.571934</ele>
        <time>2020-10-03T08:57:46.863Z</time>
      </trkpt>
      <trkpt lat="63.23491" lon="18.64132">
        <ele>35.797319</ele>
        <time>2020-10-03T08:58:27.864Z</time>
      </trkpt>
      <trkpt lat="63.23513" lon="18.63671">
        <ele>42.081519</ele>
        <time>2020-10-03T08:59:27.877Z</time>
      </trkpt>
      <trkpt lat="63.23501" lon="18.63234">
        <ele>50.427976</ele>
        <time>2020-10-03T09:01:04.860Z</time>
      </trkpt>
      <trkpt lat="63.23521" lon="18.62771">
        <ele>48.502669</ele>
        <time>2020-10-03T09:02:26.872Z</time>
      </trkpt>
      <trkpt lat="63.23544" lon="18.62313">
        <ele>51.998219</ele>
        <time>2020-10-03T09:03:36.896Z</time>
      </trkpt>
      <trkpt lat="63.23566" lon="18.61881">
        <ele>58.10843</ele>
        <time>2020-10-03T09:04:39.873Z</time>
      </trkpt>
      <trkpt lat="63.23589" lon="18.61414">
        <ele>57.044987</ele>
        <time>2020-10-03T09:05:36.881Z</time>
      </trkpt>
      <trkpt lat="63.23615" lon="18.60933">
        <ele>57.536978</ele>
        <time>2020-10-03T09:06:22.878Z</time>
      </trkpt>
      <trkpt lat="63.23601" lon="18.60463">
        <ele>54.582415</ele>
        <time>2020-10-03T09:07:22.917Z</time>
      </trkpt>
      <trkpt lat="63.23514" lon="18.59991">
        <ele>58.456386</ele>
        <time>2020-10-03T09:08:11.933Z</time>
      </trkpt>
      <trkpt lat="63.2334" lon="18.5975">
        <ele>69.446906</ele>
        <time>2020-10-03T09:09:40.917Z</time>
      </trkpt>
      <trkpt lat="63.23341" lon="18.59244">
        <ele>70.176749</ele>
        <time>2020-10-03T09:10:44.922Z</time>
      </trkpt>
      <trkpt lat="63.23343" lon="18.58724">
        <ele>70.57462</ele>
        <time>2020-10-03T09:11:25.878Z</time>
      </trkpt>
      <trkpt lat="63.23351" lon="18.58229">
        <ele>58.845601</ele>
        <time>2020-10-03T09:12:20.876Z</time>
      </trkpt>
      <trkpt lat="63.23326" lon="18.57757">
        <ele>66.256496</ele>
        <time>2020-10-03T09:13:14.887Z</time>
      </trkpt>
      <trkpt lat="63.23294" lon="18.57274">
        <ele>71.197395</ele>
        <time>2020-10-03T09:14:19.884Z</time>
      </trkpt>
      <trkpt lat="63.23259" lon="18.56753">
        <ele>65.158848</ele>
        <time>2020-10-03T09:15:05.888Z</time>
      </trkpt>
      <trkpt lat="63.23138" lon="18.56287">
        <ele>58.56245</ele>
        <time>2020-10-03T09:15:45.865Z</time>
      </trkpt>
      <trkpt lat="63.22967" lon="18.55984">
        <ele>58.285935</ele>
        <time>2020-10-03T09:16:39.882Z</time>
      </trkpt>
      <trkpt lat="63.22798" lon="18.55712">
        <ele>57.060124</ele>
        <time>2020-10-03T09:17:19.874Z</time>
      </trkpt>
      <trkpt lat="63.22601" lon="18.55569">
        <ele>61.709937</ele>
        <time>2020-10-03T09:18:16.883Z</time>
      </trkpt>
      <trkpt lat="63.22396" lon="18.55554">
        <ele>79.872099</ele>
        <time>2020-10-03T09:20:09.878Z</time>
      </trkpt>
      <trkpt lat="63.22195" lon="18.55526">
        <ele>83.094716</ele>
        <time>2020-10-03T09:21:48.897Z</time>
      </trkpt>
      <trkpt lat="63.21981" lon="18.55536">
        <ele>85.970251</ele>
        <time>2020-10-03T09:22:57.910Z</time>
      </trkpt>
      <trkpt lat="63.21777" lon="18.556">
        <ele>88.264474</ele>
        <time>2020-10-03T09:24:13.876Z</time>
      </trkpt>
      <trkpt lat="63.21576" lon="18.55663">
        <ele>87.037443</ele>
        <time>2020-10-03T09:24:55.882Z</time>
      </trkpt>
      <trkpt lat="63.21354" lon="18.55679">
        <ele>83.901082</ele>
        <time>2020-10-03T09:25:42.875Z</time>
      </trkpt>
      <trkpt lat="63.21151" lon="18.55386">
        <ele>80.489461</ele>
        <time>2020-10-03T09:26:24.870Z</time>
      </trkpt>
      <trkpt lat="63.20976" lon="18.55116">
        <ele>83.277582</ele>
        <time>2020-10-03T09:27:16.875Z</time>
      </trkpt>
      <trkpt lat="63.20886" lon="18.54708">
        <ele>89.798951</ele>
        <time>2020-10-03T09:28:21.877Z</time>
      </trkpt>
      <trkpt lat="63.20752" lon="18.54389">
        <ele>97.354316</ele>
        <time>2020-10-03T09:29:23.918Z</time>
      </trkpt>
      <trkpt lat="63.20598" lon="18.5409">
        <ele>103.243591</ele>
        <time>2020-10-03T09:30:57.885Z</time>
      </trkpt>
      <trkpt lat="63.20414" lon="18.53761">
        <ele>91.463342</ele>
        <time>2020-10-03T09:31:32.919Z</time>
      </trkpt>
      <trkpt lat="63.2027" lon="18.53437">
        <ele>76.740649</ele>
        <time>2020-10-03T09:31:52.900Z</time>
      </trkpt>
      <trkpt lat="63.20203" lon="18.52949">
        <ele>60.586329</ele>
        <time>2020-10-03T09:32:12.899Z</time>
      </trkpt>
      <trkpt lat="63.20139" lon="18.52424">
        <ele>48.358363</ele>
        <time>2020-10-03T09:32:32.907Z</time>
      </trkpt>
      <trkpt lat="63.20272" lon="18.52053">
        <ele>39.161928</ele>
        <time>2020-10-03T09:32:52.874Z</time>
      </trkpt>
      <trkpt lat="63.20449" lon="18.51763">
        <ele>36.073697</ele>
        <time>2020-10-03T09:33:25.865Z</time>
      </trkpt>
      <trkpt lat="63.20634" lon="18.51481">
        <ele>43.905947</ele>
        <time>2020-10-03T09:34:32.893Z</time>
      </trkpt>
      <trkpt lat="63.2066" lon="18.51114">
        <ele>48.139772</ele>
        <time>2020-10-03T09:35:43.869Z</time>
      </trkpt>
      <trkpt lat="63.20523" lon="18.50661">
        <ele>53.898127</ele>
        <time>2020-10-03T09:36:37.873Z</time>
      </trkpt>
      <trkpt lat="63.20355" lon="18.50438">
        <ele>55.685721</ele>
        <time>2020-10-03T09:37:43.927Z</time>
      </trkpt>
      <trkpt lat="63.20165" lon="18.50218">
        <ele>48.806718</ele>
        <time>2020-10-03T09:38:41.896Z</time>
      </trkpt>
      <trkpt lat="63.19921" lon="18.4993">
        <ele>43.272278</ele>
        <time>2020-10-03T09:39:25.910Z</time>
      </trkpt>
      <trkpt lat="63.19713" lon="18.49692">
        <ele>43.766307</ele>
        <time>2020-10-03T09:40:38.895Z</time>
      </trkpt>
      <trkpt lat="63.19526" lon="18.49487">
        <ele>41.777803</ele>
        <time>2020-10-03T09:41:38.884Z</time>
      </trkpt>
      <trkpt lat="63.19313" lon="18.49208">
        <ele>39.354695</ele>
        <time>2020-10-03T09:42:19.905Z</time>
      </trkpt>
      <trkpt lat="63.19161" lon="18.48914">
        <ele>52.838686</ele>
        <time>2020-10-03T09:43:59.893Z</time>
      </trkpt>
      <trkpt lat="63.19013" lon="18.4863">
        <ele>67.735371</ele>
        <time>2020-10-03T09:46:06.954Z</time>
      </trkpt>
      <trkpt lat="63.18862" lon="18.48336">
        <ele>77.449259</ele>
        <time>2020-10-03T09:47:52.890Z</time>
      </trkpt>
      <trkpt lat="63.18742" lon="18.47949">
        <ele>90.067828</ele>
        <time>2020-10-03T09:49:39.889Z</time>
      </trkpt>
      <trkpt lat="63.1868" lon="18.47518">
        <ele>97.657077</ele>
        <time>2020-10-03T09:51:09.895Z</time>
      </trkpt>
      <trkpt lat="63.18571" lon="18.47149">
        <ele>97.23837</ele>
        <time>2020-10-03T09:52:33.880Z</time>
      </trkpt>
      <trkpt lat="63.18411" lon="18.46922">
        <ele>114.581755</ele>
        <time>2020-10-03T09:54:37.938Z</time>
      </trkpt>
      <trkpt lat="63.18219" lon="18.46861">
        <ele>124.19891</ele>
        <time>2020-10-03T09:56:33.902Z</time>
      </trkpt>
      <trkpt lat="63.18042" lon="18.46716">
        <ele>135.699347</ele>
        <time>2020-10-03T09:58:36.896Z</time>
      </trkpt>
      <trkpt lat="63.17928" lon="18.46344">
        <ele>141.158739</ele>
        <time>2020-10-03T10:00:33.871Z</time>
      </trkpt>
      <trkpt lat="63.17834" lon="18.4585">
        <ele>139.005825</ele>
        <time>2020-10-03T10:01:29.905Z</time>
      </trkpt>
      <trkpt lat="63.17785" lon="18.45351">
        <ele>126.964962</ele>
        <time>2020-10-03T10:01:50.899Z</time>
      </trkpt>
      <trkpt lat="63.17814" lon="18.44871">
        <ele>114.338624</ele>
        <time>2020-10-03T10:02:11.903Z</time>
      </trkpt>
      <trkpt lat="63.17748" lon="18.44423">
        <ele>98.96607</ele>
        <time>2020-10-03T10:02:31.913Z</time>
      </trkpt>
      <trkpt lat="63.17645" lon="18.43951">
        <ele>89.414754</ele>
        <time>2020-10-03T10:03:17.896Z</time>
      </trkpt>
      <trkpt lat="63.17437" lon="18.43637">
        <ele>91.736714</ele>
        <time>2020-10-03T10:04:21.924Z</time>
      </trkpt>
      <trkpt lat="63.1724" lon="18.43466">
        <ele>104.493657</ele>
        <time>2020-10-03T10:05:33.885Z</time>
      </trkpt>
      <trkpt lat="63.17062" lon="18.43267">
        <ele>110.365681</ele>
        <time>2020-10-03T10:06:46.887Z</time>
      </trkpt>
      <trkpt lat="63.16907" lon="18.42849">
        <ele>98.624234</ele>
        <time>2020-10-03T10:07:28.900Z</time>
      </trkpt>
      <trkpt lat="63.16772" lon="18.42508">
        <ele>86.83288</ele>
        <time>2020-10-03T10:07:48.900Z</time>
      </trkpt>
      <trkpt lat="63.16672" lon="18.42152">
        <ele>101.499068</ele>
        <time>2020-10-03T10:09:05.895Z</time>
      </trkpt>
      <trkpt lat="63.16454" lon="18.42017">
        <ele>114.329696</ele>
        <time>2020-10-03T10:10:17.901Z</time>
      </trkpt>
      <trkpt lat="63.16336" lon="18.41699">
        <ele>109.042159</ele>
        <time>2020-10-03T10:11:16.901Z</time>
      </trkpt>
      <trkpt lat="63.16326" lon="18.41122">
        <ele>102.205614</ele>
        <time>2020-10-03T10:12:20.955Z</time>
      </trkpt>
      <trkpt lat="63.1635" lon="18.40659">
        <ele>91.824554</ele>
        <time>2020-10-03T10:12:42.921Z</time>
      </trkpt>
      <trkpt lat="63.16328" lon="18.40139">
        <ele>86.897364</ele>
        <time>2020-10-03T10:13:17.888Z</time>
      </trkpt>
      <trkpt lat="63.16389" lon="18.39641">
        <ele>90.771985</ele>
        <time>2020-10-03T10:38:04.086Z</time>
      </trkpt>
      <trkpt lat="63.16481" lon="18.39243">
        <ele>99.341077</ele>
        <time>2020-10-03T10:39:33.101Z</time>
      </trkpt>
      <trkpt lat="63.16638" lon="18.38995">
        <ele>110.467568</ele>
        <time>2020-10-03T10:41:34.073Z</time>
      </trkpt>
      <trkpt lat="63.16689" lon="18.38593">
        <ele>121.81288</ele>
        <time>2020-10-03T10:43:54.084Z</time>
      </trkpt>
      <trkpt lat="63.16678" lon="18.38168">
        <ele>132.115997</ele>
        <time>2020-10-03T10:45:51.102Z</time>
      </trkpt>
      <trkpt lat="63.16666" lon="18.3772">
        <ele>140.659377</ele>
        <time>2020-10-03T10:47:27.092Z</time>
      </trkpt>
      <trkpt lat="63.16764" lon="18.37314">
        <ele>152.970372</ele>
        <time>2020-10-03T10:49:14.071Z</time>
      </trkpt>
      <trkpt lat="63.16866" lon="18.36943">
        <ele>161.94468</ele>
        <time>2020-10-03T10:50:55.076Z</time>
      </trkpt>
      <trkpt lat="63.16885" lon="18.36506">
        <ele>163.910407</ele>
        <time>2020-10-03T10:52:22.079Z</time>
      </trkpt>
      <trkpt lat="63.16893" lon="18.36058">
        <ele>165.155144</ele>
        <time>2020-10-03T10:53:54.092Z</time>
      </trkpt>
      <trkpt lat="63.16854" lon="18.35587">
        <ele>164.889727</ele>
        <time>2020-10-03T10:54:47.087Z</time>
      </trkpt>
      <trkpt lat="63.16782" lon="18.35165">
        <ele>167.545677</ele>
        <time>2020-10-03T10:55:42.074Z</time>
      </trkpt>
      <trkpt lat="63.16883" lon="18.34774">
        <ele>181.513589</ele>
        <time>2020-10-03T10:57:28.093Z</time>
      </trkpt>
      <trkpt lat="63.17011" lon="18.34435">
        <ele>193.463313</ele>
        <time>2020-10-03T10:59:25.082Z</time>
      </trkpt>
      <trkpt lat="63.17137" lon="18.34045">
        <ele>195.046902</ele>
        <time>2020-10-03T11:00:42.102Z</time>
      </trkpt>
      <trkpt lat="63.17183" lon="18.33623">
        <ele>198.308153</ele>
        <time>2020-10-03T11:02:19.099Z</time>
      </trkpt>
      <trkpt lat="63.17065" lon="18.33232">
        <ele>195.083656</ele>
        <time>2020-10-03T11:03:21.119Z</time>
      </trkpt>
      <trkpt lat="63.16889" lon="18.32817">
        <ele>168.546376</ele>
        <time>2020-10-03T11:04:01.106Z</time>
      </trkpt>
      <trkpt lat="63.16702" lon="18.32378">
        <ele>163.634449</ele>
        <time>2020-10-03T11:04:47.096Z</time>
      </trkpt>
      <trkpt lat="63.1657" lon="18.32006">
        <ele>177.999691</ele>
        <time>2020-10-03T11:05:49.081Z</time>
      </trkpt>
      <trkpt lat="63.16463" lon="18.3165">
        <ele>196.90325</ele>
        <time>2020-10-03T11:07:55.084Z</time>
      </trkpt>
      <trkpt lat="63.16329" lon="18.31357">
        <ele>208.029897</ele>
        <time>2020-10-03T11:09:56.081Z</time>
      </trkpt>
      <trkpt lat="63.16329" lon="18.30906">
        <ele>213.842869</ele>
        <time>2020-10-03T11:11:24.080Z</time>
      </trkpt>
      <trkpt lat="63.16386" lon="18.30499">
        <ele>233.676686</ele>
        <time>2020-10-03T11:13:46.082Z</time>
      </trkpt>
      <trkpt lat="63.1648" lon="18.30092">
        <ele>237.715687</ele>
        <time>2020-10-03T11:15:57.087Z</time>
      </trkpt>
      <trkpt lat="63.16637" lon="18.29721">
        <ele>227.536208</ele>
        <time>2020-10-03T11:16:43.088Z</time>
      </trkpt>
      <trkpt lat="63.16695" lon="18.29277">
        <ele>227.026342</ele>
        <time>2020-10-03T11:17:32.123Z</time>
      </trkpt>
      <trkpt lat="63.16629" lon="18.28842">
        <ele>236.130855</ele>
        <time>2020-10-03T11:18:57.097Z</time>
      </trkpt>
      <trkpt lat="63.16518" lon="18.28486">
        <ele>250.259702</ele>
        <time>2020-10-03T11:20:58.128Z</time>
      </trkpt>
      <trkpt lat="63.16518" lon="18.28059">
        <ele>256.217138</ele>
        <time>2020-10-03T11:23:07.094Z</time>
      </trkpt>
      <trkpt lat="63.16414" lon="18.2762">
        <ele>255.190537</ele>
        <time>2020-10-03T11:24:00.113Z</time>
      </trkpt>
      <trkpt lat="63.16252" lon="18.27329">
        <ele>258.908597</ele>
        <time>2020-10-03T11:25:23.086Z</time>
      </trkpt>
      <trkpt lat="63.16076" lon="18.27026">
        <ele>258.395652</ele>
        <time>2020-10-03T11:26:20.141Z</time>
      </trkpt>
      <trkpt lat="63.15876" lon="18.26885">
        <ele>259.259455</ele>
        <time>2020-10-03T11:27:16.084Z</time>
      </trkpt>
      <trkpt lat="63.15662" lon="18.26819">
        <ele>262.126557</ele>
        <time>2020-10-03T11:27:58.089Z</time>
      </trkpt>
      <trkpt lat="63.15447" lon="18.26756">
        <ele>266.421337</ele>
        <time>2020-10-03T11:30:16.095Z</time>
      </trkpt>
      <trkpt lat="63.15219" lon="18.26597">
        <ele>262.674904</ele>
        <time>2020-10-03T11:31:09.081Z</time>
      </trkpt>
      <trkpt lat="63.14996" lon="18.26337">
        <ele>261.368154</ele>
        <time>2020-10-03T11:32:02.096Z</time>
      </trkpt>
      <trkpt lat="63.1486" lon="18.25993">
        <ele>262.622129</ele>
        <time>2020-10-03T11:33:06.126Z</time>
      </trkpt>
      <trkpt lat="63.14671" lon="18.2571">
        <ele>254.723042</ele>
        <time>2020-10-03T11:34:01.089Z</time>
      </trkpt>
      <trkpt lat="63.14488" lon="18.25434">
        <ele>253.534408</ele>
        <time>2020-10-03T11:34:42.100Z</time>
      </trkpt>
      <trkpt lat="63.14259" lon="18.25362">
        <ele>253.119438</ele>
        <time>2020-10-03T11:35:33.091Z</time>
      </trkpt>
      <trkpt lat="63.14022" lon="18.25408">
        <ele>246.720613</ele>
        <time>2020-10-03T11:36:10.091Z</time>
      </trkpt>
      <trkpt lat="63.13801" lon="18.25254">
        <ele>227.249884</ele>
        <time>2020-10-03T11:36:35.071Z</time>
      </trkpt>
      <trkpt lat="63.13624" lon="18.24874">
        <ele>202.378233</ele>
        <time>2020-10-03T11:37:03.120Z</time>
      </trkpt>
      <trkpt lat="63.13487" lon="18.24463">
        <ele>185.130041</ele>
        <time>2020-10-03T11:37:28.093Z</time>
      </trkpt>
      <trkpt lat="63.13362" lon="18.24112">
        <ele>187.37527</ele>
        <time>2020-10-03T11:38:29.089Z</time>
      </trkpt>
      <trkpt lat="63.13209" lon="18.24485">
        <ele>184.450454</ele>
        <time>2020-10-03T11:39:14.085Z</time>
      </trkpt>
      <trkpt lat="63.13038" lon="18.24823">
        <ele>182.301705</ele>
        <time>2020-10-03T11:40:09.077Z</time>
      </trkpt>
      <trkpt lat="63.12858" lon="18.25177">
        <ele>171.130489</ele>
        <time>2020-10-03T11:40:49.087Z</time>
      </trkpt>
      <trkpt lat="63.12661" lon="18.25454">
        <ele>163.867875</ele>
        <time>2020-10-03T11:41:37.103Z</time>
      </trkpt>
      <trkpt lat="63.12431" lon="18.25538">
        <ele>162.101688</ele>
        <time>2020-10-03T11:42:36.089Z</time>
      </trkpt>
      <trkpt lat="63.12216" lon="18.25525">
        <ele>164.345684</ele>
        <time>2020-10-03T11:43:47.099Z</time>
      </trkpt>
      <trkpt lat="63.11969" lon="18.25504">
        <ele>158.232521</ele>
        <time>2020-10-03T11:44:28.101Z</time>
      </trkpt>
      <trkpt lat="63.11749" lon="18.25485">
        <ele>154.163229</ele>
        <time>2020-10-03T11:44:52.089Z</time>
      </trkpt>
      <trkpt lat="63.11537" lon="18.25448">
        <ele>158.416797</ele>
        <time>2020-10-03T11:45:49.094Z</time>
      </trkpt>
      <trkpt lat="63.11323" lon="18.25365">
        <ele>158.862585</ele>
        <time>2020-10-03T11:46:47.110Z</time>
      </trkpt>
      <trkpt lat="63.11101" lon="18.25405">
        <ele>152.610828</ele>
        <time>2020-10-03T11:47:29.084Z</time>
      </trkpt>
      <trkpt lat="63.10861" lon="18.25447">
        <ele>150.089449</ele>
        <time>2020-10-03T11:48:08.089Z</time>
      </trkpt>
      <trkpt lat="63.10653" lon="18.25297">
        <ele>155.266919</ele>
        <time>2020-10-03T11:49:29.096Z</time>
      </trkpt>
      <trkpt lat="63.10449" lon="18.25262">
        <ele>152.861176</ele>
        <time>2020-10-03T11:50:34.086Z</time>
      </trkpt>
      <trkpt lat="63.10241" lon="18.25367">
        <ele>154.096811</ele>
        <time>2020-10-03T11:51:47.096Z</time>
      </trkpt>
      <trkpt lat="63.10037" lon="18.25552">
        <ele>145.618797</ele>
        <time>2020-10-03T11:52:18.088Z</time>
      </trkpt>
      <trkpt lat="63.098" lon="18.25807">
        <ele>136.374173</ele>
        <time>2020-10-03T11:52:51.090Z</time>
      </trkpt>
      <trkpt lat="63.09589" lon="18.26108">
        <ele>125.560071</ele>
        <time>2020-10-03T11:53:22.103Z</time>
      </trkpt>
      <trkpt lat="63.09397" lon="18.26376">
        <ele>123.183173</ele>
        <time>2020-10-03T11:54:07.088Z</time>
      </trkpt>
      <trkpt lat="63.09212" lon="18.26657">
        <ele>123.815866</ele>
        <time>2020-10-03T11:55:00.112Z</time>
      </trkpt>
      <trkpt lat="63.09013" lon="18.27029">
        <ele>118.861793</ele>
        <time>2020-10-03T11:55:40.144Z</time>
      </trkpt>
      <trkpt lat="63.08833" lon="18.27367">
        <ele>115.069431</ele>
        <time>2020-10-03T11:56:20.098Z</time>
      </trkpt>
      <trkpt lat="63.08614" lon="18.27554">
        <ele>114.638467</ele>
        <time>2020-10-03T11:57:00.103Z</time>
      </trkpt>
      <trkpt lat="63.08391" lon="18.27656">
        <ele>115.104815</ele>
        <time>2020-10-03T11:57:44.092Z</time>
      </trkpt>
      <trkpt lat="63.08156" lon="18.278">
        <ele>112.328282</ele>
        <time>2020-10-03T11:58:37.086Z</time>
      </trkpt>
      <trkpt lat="63.07965" lon="18.28099">
        <ele>101.186765</ele>
        <time>2020-10-03T11:59:03.134Z</time>
      </trkpt>
      <trkpt lat="63.079" lon="18.28558">
        <ele>89.204708</ele>
        <time>2020-10-03T11:59:23.088Z</time>
      </trkpt>
      <trkpt lat="63.07866" lon="18.29104">
        <ele>80.69119</ele>
        <time>2020-10-03T11:59:47.091Z</time>
      </trkpt>
      <trkpt lat="63.07834" lon="18.29609">
        <ele>84.379746</ele>
        <time>2020-10-03T12:00:36.111Z</time>
      </trkpt>
      <trkpt lat="63.07804" lon="18.30161">
        <ele>80.281357</ele>
        <time>2020-10-03T12:01:28.123Z</time>
      </trkpt>
      <trkpt lat="63.07716" lon="18.30736">
        <ele>76.069016</ele>
        <time>2020-10-03T12:02:16.114Z</time>
      </trkpt>
      <trkpt lat="63.07625" lon="18.31213">
        <ele>70.940118</ele>
        <time>2020-10-03T12:03:03.087Z</time>
      </trkpt>
      <trkpt lat="63.07488" lon="18.31586">
        <ele>62.106513</ele>
        <time>2020-10-03T12:03:41.126Z</time>
      </trkpt>
      <trkpt lat="63.07269" lon="18.31752">
        <ele>48.711634</ele>
        <time>2020-10-03T12:04:01.083Z</time>
      </trkpt>
      <trkpt lat="63.07027" lon="18.31829">
        <ele>38.40135</ele>
        <time>2020-10-03T12:04:27.089Z</time>
      </trkpt>
      <trkpt lat="63.06807" lon="18.31898">
        <ele>36.108267</ele>
        <time>2020-10-03T12:05:07.103Z</time>
      </trkpt>
      <trkpt lat="63.06591" lon="18.3195">
        <ele>38.876567</ele>
        <time>2020-10-03T12:05:55.102Z</time>
      </trkpt>
      <trkpt lat="63.06401" lon="18.32125">
        <ele>46.695121</ele>
        <time>2020-10-03T12:06:52.128Z</time>
      </trkpt>
      <trkpt lat="63.06241" lon="18.3237">
        <ele>56.350773</ele>
        <time>2020-10-03T12:08:34.116Z</time>
      </trkpt>
      <trkpt lat="63.0606" lon="18.32563">
        <ele>60.69529</ele>
        <time>2020-10-03T12:10:05.107Z</time>
      </trkpt>
      <trkpt lat="63.05853" lon="18.32675">
        <ele>57.103592</ele>
        <time>2020-10-03T12:10:52.152Z</time>
      </trkpt>
      <trkpt lat="63.05636" lon="18.32865">
        <ele>40.957351</ele>
        <time>2020-10-03T12:11:38.090Z</time>
      </trkpt>
      <trkpt lat="63.0541" lon="18.32613">
        <ele>34.105885</ele>
        <time>2020-10-03T12:12:19.090Z</time>
      </trkpt>
      <trkpt lat="63.0519" lon="18.32528">
        <ele>35.241967</ele>
        <time>2020-10-03T12:13:11.108Z</time>
      </trkpt>
      <trkpt lat="63.04942" lon="18.32498">
        <ele>25.875408</ele>
        <time>2020-10-03T12:13:53.136Z</time>
      </trkpt>
      <trkpt lat="63.04721" lon="18.32586">
        <ele>26.217095</ele>
        <time>2020-10-03T12:14:39.126Z</time>
      </trkpt>
      <trkpt lat="63.04494" lon="18.32595">
        <ele>32.488533</ele>
        <time>2020-10-03T12:15:41.093Z</time>
      </trkpt>
      <trkpt lat="63.04284" lon="18.32618">
        <ele>45.605362</ele>
        <time>2020-10-03T12:17:12.106Z</time>
      </trkpt>
      <trkpt lat="63.04084" lon="18.32632">
        <ele>51.004384</ele>
        <time>2020-10-03T12:18:35.129Z</time>
      </trkpt>
      <trkpt lat="63.03883" lon="18.32627">
        <ele>60.341085</ele>
        <time>2020-10-03T12:20:00.102Z</time>
      </trkpt>
      <trkpt lat="63.03684" lon="18.32623">
        <ele>70.967109</ele>
        <time>2020-10-03T12:21:43.092Z</time>
      </trkpt>
      <trkpt lat="63.03481" lon="18.32524">
        <ele>75.01784</ele>
        <time>2020-10-03T12:23:00.090Z</time>
      </trkpt>
      <trkpt lat="63.03317" lon="18.32126">
        <ele>65.190758</ele>
        <time>2020-10-03T12:23:42.111Z</time>
      </trkpt>
      <trkpt lat="63.03179" lon="18.31719">
        <ele>55.660371</ele>
        <time>2020-10-03T12:24:06.095Z</time>
      </trkpt>
      <trkpt lat="63.03086" lon="18.3126">
        <ele>56.54482</ele>
        <time>2020-10-03T12:24:54.107Z</time>
      </trkpt>
      <trkpt lat="63.02962" lon="18.30959">
        <ele>61.4748</ele>
        <time>2020-10-03T12:26:17.099Z</time>
      </trkpt>
      <trkpt lat="63.02854" lon="18.30499">
        <ele>60.14913</ele>
        <time>2020-10-03T12:27:27.138Z</time>
      </trkpt>
      <trkpt lat="63.02744" lon="18.30086">
        <ele>52.61967</ele>
        <time>2020-10-03T12:27:50.111Z</time>
      </trkpt>
      <trkpt lat="63.02505" lon="18.29762">
        <ele>45.121532</ele>
        <time>2020-10-03T12:28:28.105Z</time>
      </trkpt>
      <trkpt lat="63.02267" lon="18.29675">
        <ele>45.207609</ele>
        <time>2020-10-03T12:29:12.132Z</time>
      </trkpt>
      <trkpt lat="63.02004" lon="18.29537">
        <ele>35.773134</ele>
        <time>2020-10-03T12:29:49.110Z</time>
      </trkpt>
      <trkpt lat="63.01767" lon="18.29427">
        <ele>26.543858</ele>
        <time>2020-10-03T12:30:12.109Z</time>
      </trkpt>
      <trkpt lat="63.01574" lon="18.29234">
        <ele>27.149054</ele>
        <time>2020-10-03T12:30:52.093Z</time>
      </trkpt>
      <trkpt lat="63.014" lon="18.28998">
        <ele>31.070267</ele>
        <time>2020-10-03T12:31:50.139Z</time>
      </trkpt>
      <trkpt lat="63.01193" lon="18.28996">
        <ele>34.742533</ele>
        <time>2020-10-03T12:33:00.109Z</time>
      </trkpt>
      <trkpt lat="63.00971" lon="18.28974">
        <ele>34.927196</ele>
        <time>2020-10-03T12:35:07.119Z</time>
      </trkpt>
      <trkpt lat="63.00809" lon="18.28693">
        <ele>44.845641</ele>
        <time>2020-10-03T12:36:30.145Z</time>
      </trkpt>
      <trkpt lat="63.00761" lon="18.28221">
        <ele>42.793568</ele>
        <time>2020-10-03T12:47:38.089Z</time>
      </trkpt>
      <trkpt lat="63.00798" lon="18.27751">
        <ele>32.166232</ele>
        <time>2020-10-03T12:48:22.127Z</time>
      </trkpt>
      <trkpt lat="63.00816" lon="18.27291">
        <ele>27.091042</ele>
        <time>2020-10-03T12:49:06.105Z</time>
      </trkpt>
      <trkpt lat="63.00743" lon="18.26851">
        <ele>31.395539</ele>
        <time>2020-10-03T12:50:14.127Z</time>
      </trkpt>
      <trkpt lat="63.00611" lon="18.26469">
        <ele>34.682511</ele>
        <time>2020-10-03T12:51:24.136Z</time>
      </trkpt>
      <trkpt lat="63.00502" lon="18.26009">
        <ele>34.489904</ele>
        <time>2020-10-03T12:52:18.129Z</time>
      </trkpt>
      <trkpt lat="63.00461" lon="18.25533">
        <ele>31.649475</ele>
        <time>2020-10-03T12:58:06.124Z</time>
      </trkpt>
      <trkpt lat="63.00467" lon="18.25083">
        <ele>40.989372</ele>
        <time>2020-10-03T12:59:03.126Z</time>
      </trkpt>
      <trkpt lat="63.00455" lon="18.24622">
        <ele>47.190996</ele>
        <time>2020-10-03T13:00:24.103Z</time>
      </trkpt>
      <trkpt lat="63.00445" lon="18.24106">
        <ele>42.445236</ele>
        <time>2020-10-03T13:01:16.128Z</time>
      </trkpt>
      <trkpt lat="63.00512" lon="18.23572">
        <ele>45.414806</ele>
        <time>2020-10-03T13:01:58.114Z</time>
      </trkpt>
      <trkpt lat="63.00611" lon="18.23099">
        <ele>47.134275</ele>
        <time>2020-10-03T13:02:38.095Z</time>
      </trkpt>
      <trkpt lat="63.00808" lon="18.22651">
        <ele>37.911593</ele>
        <time>2020-10-03T13:03:18.160Z</time>
      </trkpt>
      <trkpt lat="63.01012" lon="18.22337">
        <ele>32.195864</ele>
        <time>2020-10-03T13:03:58.117Z</time>
      </trkpt>
      <trkpt lat="63.01175" lon="18.22051">
        <ele>33.45838</ele>
        <time>2020-10-03T13:04:40.162Z</time>
      </trkpt>
      <trkpt lat="63.01309" lon="18.21655">
        <ele>33.238616</ele>
        <time>2020-10-03T13:05:24.118Z</time>
      </trkpt>
      <trkpt lat="63.01432" lon="18.21273">
        <ele>35.245554</ele>
        <time>2020-10-03T13:06:10.118Z</time>
      </trkpt>
      <trkpt lat="63.01498" lon="18.20829">
        <ele>36.644224</ele>
        <time>2020-10-03T13:06:50.121Z</time>
      </trkpt>
      <trkpt lat="63.01519" lon="18.20355">
        <ele>40.502463</ele>
        <time>2020-10-03T13:07:39.095Z</time>
      </trkpt>
      <trkpt lat="63.01508" lon="18.19801">
        <ele>32.799763</ele>
        <time>2020-10-03T13:08:20.146Z</time>
      </trkpt>
      <trkpt lat="63.01508" lon="18.19355">
        <ele>35.928232</ele>
        <time>2020-10-03T13:09:25.126Z</time>
      </trkpt>
      <trkpt lat="63.01445" lon="18.18824">
        <ele>37.835172</ele>
        <time>2020-10-03T13:10:19.091Z</time>
      </trkpt>
      <trkpt lat="63.01249" lon="18.1867">
        <ele>36.445176</ele>
        <time>2020-10-03T13:11:20.108Z</time>
      </trkpt>
      <trkpt lat="63.01039" lon="18.18705">
        <ele>38.014231</ele>
        <time>2020-10-03T13:12:13.107Z</time>
      </trkpt>
      <trkpt lat="63.00951" lon="18.1868">
        <ele>37.375156</ele>
        <time>2020-10-03T13:25:59.112Z</time>
      </trkpt>
      <trkpt lat="63.00971" lon="18.18982">
        <ele>41.602905</ele>
        <time>2020-10-03T13:37:36.103Z</time>
      </trkpt>
      <trkpt lat="63.00809" lon="18.19186">
        <ele>49.555371</ele>
        <time>2020-10-03T13:39:36.115Z</time>
      </trkpt>
      <trkpt lat="63.00654" lon="18.19499">
        <ele>53.849602</ele>
        <time>2020-10-03T13:41:05.106Z</time>
      </trkpt>
      <trkpt lat="63.00511" lon="18.19812">
        <ele>59.771598</ele>
        <time>2020-10-03T13:42:14.109Z</time>
      </trkpt>
      <trkpt lat="63.00462" lon="18.20226">
        <ele>70.910303</ele>
        <time>2020-10-03T13:44:07.117Z</time>
      </trkpt>
      <trkpt lat="63.00402" lon="18.2067">
        <ele>69.15441</ele>
        <time>2020-10-03T13:45:24.097Z</time>
      </trkpt>
      <trkpt lat="63.00257" lon="18.21171">
        <ele>59.089934</ele>
        <time>2020-10-03T13:45:59.107Z</time>
      </trkpt>
      <trkpt lat="63.0014" lon="18.21497">
        <ele>48.646366</ele>
        <time>2020-10-03T13:46:19.115Z</time>
      </trkpt>
      <trkpt lat="63.00001" lon="18.21857">
        <ele>36.453274</ele>
        <time>2020-10-03T13:46:40.146Z</time>
      </trkpt>
      <trkpt lat="62.99871" lon="18.22228">
        <ele>26.690495</ele>
        <time>2020-10-03T13:47:02.148Z</time>
      </trkpt>
      <trkpt lat="62.99786" lon="18.22704">
        <ele>27.746183</ele>
        <time>2020-10-03T13:47:48.126Z</time>
      </trkpt>
      <trkpt lat="62.99769" lon="18.2314">
        <ele>42.877126</ele>
        <time>2020-10-03T13:49:05.136Z</time>
      </trkpt>
      <trkpt lat="62.99713" lon="18.23562">
        <ele>57.913808</ele>
        <time>2020-10-03T13:50:41.117Z</time>
      </trkpt>
      <trkpt lat="62.99592" lon="18.23908">
        <ele>63.341417</ele>
        <time>2020-10-03T13:52:08.139Z</time>
      </trkpt>
      <trkpt lat="62.99488" lon="18.24327">
        <ele>68.522131</ele>
        <time>2020-10-03T13:53:27.129Z</time>
      </trkpt>
      <trkpt lat="62.99438" lon="18.24744">
        <ele>73.096947</ele>
        <time>2020-10-03T13:55:22.138Z</time>
      </trkpt>
      <trkpt lat="62.99321" lon="18.25089">
        <ele>79.889001</ele>
        <time>2020-10-03T13:56:49.109Z</time>
      </trkpt>
      <trkpt lat="62.99157" lon="18.25352">
        <ele>89.479966</ele>
        <time>2020-10-03T13:58:29.132Z</time>
      </trkpt>
      <trkpt lat="62.98971" lon="18.25547">
        <ele>103.879782</ele>
        <time>2020-10-03T13:59:45.109Z</time>
      </trkpt>
      <trkpt lat="62.98745" lon="18.25734">
        <ele>85.606896</ele>
        <time>2020-10-03T14:00:25.107Z</time>
      </trkpt>
      <trkpt lat="62.985" lon="18.25894">
        <ele>81.457709</ele>
        <time>2020-10-03T14:01:10.118Z</time>
      </trkpt>
      <trkpt lat="62.98302" lon="18.25953">
        <ele>96.930172</ele>
        <time>2020-10-03T14:02:50.126Z</time>
      </trkpt>
      <trkpt lat="62.98109" lon="18.2597">
        <ele>116.277754</ele>
        <time>2020-10-03T14:04:58.114Z</time>
      </trkpt>
      <trkpt lat="62.97917" lon="18.25957">
        <ele>130.430948</ele>
        <time>2020-10-03T14:07:02.117Z</time>
      </trkpt>
      <trkpt lat="62.97682" lon="18.25905">
        <ele>125.395032</ele>
        <time>2020-10-03T14:08:00.106Z</time>
      </trkpt>
      <trkpt lat="62.9746" lon="18.25712">
        <ele>108.342594</ele>
        <time>2020-10-03T14:08:28.128Z</time>
      </trkpt>
      <trkpt lat="62.97265" lon="18.2549">
        <ele>96.710013</ele>
        <time>2020-10-03T14:08:49.138Z</time>
      </trkpt>
      <trkpt lat="62.97033" lon="18.25492">
        <ele>83.392024</ele>
        <time>2020-10-03T14:09:09.091Z</time>
      </trkpt>
      <trkpt lat="62.96809" lon="18.25531">
        <ele>72.334642</ele>
        <time>2020-10-03T14:09:29.115Z</time>
      </trkpt>
      <trkpt lat="62.96556" lon="18.25526">
        <ele>59.373743</ele>
        <time>2020-10-03T14:09:49.125Z</time>
      </trkpt>
      <trkpt lat="62.96328" lon="18.25628">
        <ele>57.029424</ele>
        <time>2020-10-03T14:10:20.107Z</time>
      </trkpt>
      <trkpt lat="62.96117" lon="18.25836">
        <ele>62.546824</ele>
        <time>2020-10-03T14:11:12.129Z</time>
      </trkpt>
      <trkpt lat="62.95908" lon="18.25959">
        <ele>61.609912</ele>
        <time>2020-10-03T14:11:59.130Z</time>
      </trkpt>
      <trkpt lat="62.95685" lon="18.25938">
        <ele>53.243893</ele>
        <time>2020-10-03T14:12:33.130Z</time>
      </trkpt>
      <trkpt lat="62.95543" lon="18.25517">
        <ele>46.440227</ele>
        <time>2020-10-03T14:13:08.145Z</time>
      </trkpt>
      <trkpt lat="62.95534" lon="18.25053">
        <ele>49.319226</ele>
        <time>2020-10-03T14:13:59.140Z</time>
      </trkpt>
      <trkpt lat="62.95476" lon="18.24595">
        <ele>50.9308</ele>
        <time>2020-10-03T14:15:03.123Z</time>
      </trkpt>
      <trkpt lat="62.95235" lon="18.24565">
        <ele>46.903583</ele>
        <time>2020-10-03T14:15:40.111Z</time>
      </trkpt>
      <trkpt lat="62.95029" lon="18.24769">
        <ele>51.706436</ele>
        <time>2020-10-03T14:16:27.139Z</time>
      </trkpt>
      <trkpt lat="62.94862" lon="18.2508">
        <ele>50.586476</ele>
        <time>2020-10-03T14:17:12.117Z</time>
      </trkpt>
      <trkpt lat="62.94662" lon="18.25186">
        <ele>57.238593</ele>
        <time>2020-10-03T14:18:28.132Z</time>
      </trkpt>
      <trkpt lat="62.94442" lon="18.25194">
        <ele>59.175365</ele>
        <time>2020-10-03T14:19:31.106Z</time>
      </trkpt>
      <trkpt lat="62.94312" lon="18.25504">
        <ele>59.308118</ele>
        <time>2020-10-03T14:20:44.113Z</time>
      </trkpt>
      <trkpt lat="62.94117" lon="18.2582">
        <ele>60.055413</ele>
        <time>2020-10-03T14:21:15.122Z</time>
      </trkpt>
      <trkpt lat="62.93934" lon="18.25962">
        <ele>81.820874</ele>
        <time>2020-10-03T14:23:15.122Z</time>
      </trkpt>
      <trkpt lat="62.93734" lon="18.26166">
        <ele>76.420501</ele>
        <time>2020-10-03T14:24:35.109Z</time>
      </trkpt>
      <trkpt lat="62.93554" lon="18.26421">
        <ele>58.654778</ele>
        <time>2020-10-03T14:24:57.132Z</time>
      </trkpt>
      <trkpt lat="62.93359" lon="18.26593">
        <ele>45.363498</ele>
        <time>2020-10-03T14:25:29.135Z</time>
      </trkpt>
      <trkpt lat="62.93292" lon="18.26199">
        <ele>50.042001</ele>
        <time>2020-10-03T14:26:56.114Z</time>
      </trkpt>
      <trkpt lat="62.93384" lon="18.25771">
        <ele>52.429739</ele>
        <time>2020-10-03T14:28:25.131Z</time>
      </trkpt>
      <trkpt lat="62.9337" lon="18.25284">
        <ele>47.505433</ele>
        <time>2020-10-03T14:29:36.122Z</time>
      </trkpt>
      <trkpt lat="62.93199" lon="18.25545">
        <ele>52.190722</ele>
        <time>2020-10-03T14:30:28.169Z</time>
      </trkpt>
    </trkseg>
  </trk>
</gpx>